sensor_id;sensor_type;location;lat;lon;timestamp;P1;durP1;ratioP1;P2;durP2;ratioP2
21820;SDS011;11073;48.586;12.066;2022-10-15T00:01:49;4.38;;;3.55;;
21820;SDS011;11073;48.586;12.066;2022-10-15T00:04:18;6.32;;;3.55;;
21820;SDS011;11073;48.586;12.066;2022-10-15T00:06:46;5.03;;;2.90;;
21820;SDS011;11073;48.586;12.066;2022-10-15T00:09:15;5.43;;;3.25;;
21820;SDS011;11073;48.586;12.066;2022-10-15T00:11:44;4.70;;;3.20;;
21820;SDS011;11073;48.586;12.066;2022-10-15T00:14:13;5.35;;;3.00;;
21820;SDS011;11073;48.586;12.066;2022-10-15T00:16:43;4.43;;;2.55;;
21820;SDS011;11073;48.586;12.066;2022-10-15T00:19:12;4.97;;;3.17;;
21820;SDS011;11073;48.586;12.066;2022-10-15T00:21:40;4.88;;;3.13;;
21820;SDS011;11073;48.586;12.066;2022-10-15T00:24:09;4.00;;;2.53;;
21820;SDS011;11073;48.586;12.066;2022-10-15T00:26:38;4.53;;;2.83;;
21820;SDS011;11073;48.586;12.066;2022-10-15T00:29:07;5.90;;;2.78;;
21820;SDS011;11073;48.586;12.066;2022-10-15T00:31:36;3.65;;;2.90;;
21820;SDS011;11073;48.586;12.066;2022-10-15T00:34:06;4.57;;;2.78;;
21820;SDS011;11073;48.586;12.066;2022-10-15T00:36:35;2.88;;;2.58;;
21820;SDS011;11073;48.586;12.066;2022-10-15T00:39:05;4.43;;;2.38;;
21820;SDS011;11073;48.586;12.066;2022-10-15T00:41:35;3.65;;;2.10;;
21820;SDS011;11073;48.586;12.066;2022-10-15T00:47:10;5.53;;;2.47;;
21820;SDS011;11073;48.586;12.066;2022-10-15T00:49:47;3.10;;;2.33;;
21820;SDS011;11073;48.586;12.066;2022-10-15T00:52:19;3.85;;;2.47;;
21820;SDS011;11073;48.586;12.066;2022-10-15T00:54:54;4.18;;;2.50;;
21820;SDS011;11073;48.586;12.066;2022-10-15T00:57:27;2.38;;;1.65;;
21820;SDS011;11073;48.586;12.066;2022-10-15T01:00:00;2.60;;;1.95;;
21820;SDS011;11073;48.586;12.066;2022-10-15T01:02:34;2.80;;;1.90;;
21820;SDS011;11073;48.586;12.066;2022-10-15T01:05:04;2.00;;;1.85;;
21820;SDS011;11073;48.586;12.066;2022-10-15T01:07:34;2.28;;;1.48;;
21820;SDS011;11073;48.586;12.066;2022-10-15T01:10:03;2.35;;;1.65;;
21820;SDS011;11073;48.586;12.066;2022-10-15T01:12:38;2.40;;;1.70;;
21820;SDS011;11073;48.586;12.066;2022-10-15T01:15:17;4.38;;;1.80;;
21820;SDS011;11073;48.586;12.066;2022-10-15T01:17:51;2.03;;;1.50;;
21820;SDS011;11073;48.586;12.066;2022-10-15T01:20:43;2.47;;;1.60;;
21820;SDS011;11073;48.586;12.066;2022-10-15T01:23:25;2.45;;;1.15;;
21820;SDS011;11073;48.586;12.066;2022-10-15T01:26:06;2.20;;;1.42;;
21820;SDS011;11073;48.586;12.066;2022-10-15T01:29:04;3.25;;;1.77;;
21820;SDS011;11073;48.586;12.066;2022-10-15T01:31:49;1.83;;;1.40;;
21820;SDS011;11073;48.586;12.066;2022-10-15T01:34:27;2.05;;;1.50;;
21820;SDS011;11073;48.586;12.066;2022-10-15T01:37:06;1.60;;;1.50;;
21820;SDS011;11073;48.586;12.066;2022-10-15T01:39:40;1.95;;;1.50;;
21820;SDS011;11073;48.586;12.066;2022-10-15T01:42:13;3.92;;;1.60;;
21820;SDS011;11073;48.586;12.066;2022-10-15T01:44:46;2.10;;;1.50;;
21820;SDS011;11073;48.586;12.066;2022-10-15T01:47:36;2.63;;;1.88;;
21820;SDS011;11073;48.586;12.066;2022-10-15T01:50:11;4.13;;;1.90;;
21820;SDS011;11073;48.586;12.066;2022-10-15T01:52:44;3.58;;;2.10;;
21820;SDS011;11073;48.586;12.066;2022-10-15T01:55:13;2.92;;;2.10;;
21820;SDS011;11073;48.586;12.066;2022-10-15T01:57:43;4.32;;;2.10;;
21820;SDS011;11073;48.586;12.066;2022-10-15T02:00:13;2.13;;;1.90;;
21820;SDS011;11073;48.586;12.066;2022-10-15T02:02:45;4.18;;;2.33;;
21820;SDS011;11073;48.586;12.066;2022-10-15T02:05:15;2.75;;;2.00;;
21820;SDS011;11073;48.586;12.066;2022-10-15T02:07:53;4.05;;;2.35;;
21820;SDS011;11073;48.586;12.066;2022-10-15T02:10:34;2.20;;;2.00;;
21820;SDS011;11073;48.586;12.066;2022-10-15T02:13:10;4.13;;;1.83;;
21820;SDS011;11073;48.586;12.066;2022-10-15T02:15:48;2.90;;;2.35;;
21820;SDS011;11073;48.586;12.066;2022-10-15T02:18:27;3.60;;;2.08;;
21820;SDS011;11073;48.586;12.066;2022-10-15T02:21:04;2.30;;;2.10;;
21820;SDS011;11073;48.586;12.066;2022-10-15T02:23:39;3.20;;;2.42;;
21820;SDS011;11073;48.586;12.066;2022-10-15T02:26:12;2.10;;;1.90;;
21820;SDS011;11073;48.586;12.066;2022-10-15T02:28:45;2.30;;;1.88;;
21820;SDS011;11073;48.586;12.066;2022-10-15T02:31:19;4.32;;;2.20;;
21820;SDS011;11073;48.586;12.066;2022-10-15T02:33:52;2.55;;;2.15;;
21820;SDS011;11073;48.586;12.066;2022-10-15T02:36:25;3.50;;;1.58;;
21820;SDS011;11073;48.586;12.066;2022-10-15T02:38:54;4.32;;;2.10;;
21820;SDS011;11073;48.586;12.066;2022-10-15T02:41:25;2.60;;;2.10;;
21820;SDS011;11073;48.586;12.066;2022-10-15T02:43:55;4.72;;;2.30;;
21820;SDS011;11073;48.586;12.066;2022-10-15T02:46:24;2.72;;;2.03;;
21820;SDS011;11073;48.586;12.066;2022-10-15T02:48:55;2.25;;;1.73;;
21820;SDS011;11073;48.586;12.066;2022-10-15T02:51:24;2.05;;;1.65;;
21820;SDS011;11073;48.586;12.066;2022-10-15T02:53:53;2.85;;;1.67;;
21820;SDS011;11073;48.586;12.066;2022-10-15T02:56:23;2.28;;;1.90;;
21820;SDS011;11073;48.586;12.066;2022-10-15T02:58:52;3.17;;;2.40;;
21820;SDS011;11073;48.586;12.066;2022-10-15T03:01:21;2.30;;;1.90;;
21820;SDS011;11073;48.586;12.066;2022-10-15T03:03:50;2.67;;;1.80;;
21820;SDS011;11073;48.586;12.066;2022-10-15T03:06:21;2.45;;;2.15;;
21820;SDS011;11073;48.586;12.066;2022-10-15T03:08:50;2.42;;;2.22;;
21820;SDS011;11073;48.586;12.066;2022-10-15T03:11:21;2.90;;;2.30;;
21820;SDS011;11073;48.586;12.066;2022-10-15T03:13:50;3.05;;;2.33;;
21820;SDS011;11073;48.586;12.066;2022-10-15T03:16:20;3.65;;;2.13;;
21820;SDS011;11073;48.586;12.066;2022-10-15T03:18:49;2.78;;;2.00;;
21820;SDS011;11073;48.586;12.066;2022-10-15T03:21:18;1.95;;;1.60;;
21820;SDS011;11073;48.586;12.066;2022-10-15T03:23:48;3.20;;;1.65;;
21820;SDS011;11073;48.586;12.066;2022-10-15T03:26:21;1.65;;;1.30;;
21820;SDS011;11073;48.586;12.066;2022-10-15T03:28:49;1.75;;;1.58;;
21820;SDS011;11073;48.586;12.066;2022-10-15T03:31:31;4.80;;;1.42;;
21820;SDS011;11073;48.586;12.066;2022-10-15T03:34:02;2.28;;;1.30;;
21820;SDS011;11073;48.586;12.066;2022-10-15T03:36:31;1.33;;;1.20;;
21820;SDS011;11073;48.586;12.066;2022-10-15T03:39:02;1.38;;;1.23;;
21820;SDS011;11073;48.586;12.066;2022-10-15T03:41:32;1.33;;;0.85;;
21820;SDS011;11073;48.586;12.066;2022-10-15T03:44:01;2.63;;;1.48;;
21820;SDS011;11073;48.586;12.066;2022-10-15T03:46:31;3.70;;;1.30;;
21820;SDS011;11073;48.586;12.066;2022-10-15T03:49:00;2.03;;;1.23;;
21820;SDS011;11073;48.586;12.066;2022-10-15T03:51:29;1.88;;;1.20;;
21820;SDS011;11073;48.586;12.066;2022-10-15T03:54:06;1.95;;;1.10;;
21820;SDS011;11073;48.586;12.066;2022-10-15T03:56:42;1.77;;;1.25;;
21820;SDS011;11073;48.586;12.066;2022-10-15T03:59:28;1.48;;;1.08;;
21820;SDS011;11073;48.586;12.066;2022-10-15T04:02:00;1.10;;;0.88;;
21820;SDS011;11073;48.586;12.066;2022-10-15T04:04:30;1.55;;;0.90;;
21820;SDS011;11073;48.586;12.066;2022-10-15T04:06:58;2.75;;;1.08;;
21820;SDS011;11073;48.586;12.066;2022-10-15T04:09:31;4.50;;;1.20;;
21820;SDS011;11073;48.586;12.066;2022-10-15T04:12:20;4.00;;;1.10;;
21820;SDS011;11073;48.586;12.066;2022-10-15T04:14:49;2.45;;;1.13;;
21820;SDS011;11073;48.586;12.066;2022-10-15T04:17:17;1.05;;;0.95;;
21820;SDS011;11073;48.586;12.066;2022-10-15T04:19:47;1.75;;;0.93;;
21820;SDS011;11073;48.586;12.066;2022-10-15T04:22:16;1.13;;;0.90;;
21820;SDS011;11073;48.586;12.066;2022-10-15T04:24:52;2.55;;;0.80;;
21820;SDS011;11073;48.586;12.066;2022-10-15T04:27:27;3.17;;;0.90;;
21820;SDS011;11073;48.586;12.066;2022-10-15T04:30:07;1.95;;;0.88;;
21820;SDS011;11073;48.586;12.066;2022-10-15T04:32:41;1.67;;;1.00;;
21820;SDS011;11073;48.586;12.066;2022-10-15T04:35:10;1.50;;;0.95;;
21820;SDS011;11073;48.586;12.066;2022-10-15T04:37:50;1.73;;;0.80;;
21820;SDS011;11073;48.586;12.066;2022-10-15T04:40:20;0.73;;;0.73;;
21820;SDS011;11073;48.586;12.066;2022-10-15T04:42:49;10.52;;;1.10;;
21820;SDS011;11073;48.586;12.066;2022-10-15T04:45:19;1.75;;;0.60;;
21820;SDS011;11073;48.586;12.066;2022-10-15T04:47:47;1.50;;;0.57;;
21820;SDS011;11073;48.586;12.066;2022-10-15T04:50:17;0.93;;;0.70;;
21820;SDS011;11073;48.586;12.066;2022-10-15T04:53:04;0.77;;;0.60;;
21820;SDS011;11073;48.586;12.066;2022-10-15T04:55:38;1.92;;;0.95;;
21820;SDS011;11073;48.586;12.066;2022-10-15T04:58:06;1.02;;;0.73;;
21820;SDS011;11073;48.586;12.066;2022-10-15T05:00:35;1.27;;;0.73;;
21820;SDS011;11073;48.586;12.066;2022-10-15T05:03:29;2.15;;;0.90;;
21820;SDS011;11073;48.586;12.066;2022-10-15T05:06:04;1.05;;;0.90;;
21820;SDS011;11073;48.586;12.066;2022-10-15T05:08:37;2.88;;;0.80;;
21820;SDS011;11073;48.586;12.066;2022-10-15T05:11:17;0.52;;;0.52;;
21820;SDS011;11073;48.586;12.066;2022-10-15T05:13:48;1.23;;;0.70;;
21820;SDS011;11073;48.586;12.066;2022-10-15T05:16:18;1.10;;;0.60;;
21820;SDS011;11073;48.586;12.066;2022-10-15T05:18:48;1.00;;;0.60;;
21820;SDS011;11073;48.586;12.066;2022-10-15T05:21:18;1.02;;;0.60;;
21820;SDS011;11073;48.586;12.066;2022-10-15T05:23:50;1.17;;;0.80;;
21820;SDS011;11073;48.586;12.066;2022-10-15T05:26:39;1.33;;;0.90;;
21820;SDS011;11073;48.586;12.066;2022-10-15T05:29:08;2.00;;;1.10;;
21820;SDS011;11073;48.586;12.066;2022-10-15T05:31:37;2.05;;;0.80;;
21820;SDS011;11073;48.586;12.066;2022-10-15T05:34:13;1.40;;;0.80;;
21820;SDS011;11073;48.586;12.066;2022-10-15T05:36:49;0.98;;;0.65;;
21820;SDS011;11073;48.586;12.066;2022-10-15T05:39:17;1.10;;;0.60;;
21820;SDS011;11073;48.586;12.066;2022-10-15T05:41:47;1.33;;;0.70;;
21820;SDS011;11073;48.586;12.066;2022-10-15T05:44:19;1.33;;;0.75;;
21820;SDS011;11073;48.586;12.066;2022-10-15T05:46:47;3.17;;;1.25;;
21820;SDS011;11073;48.586;12.066;2022-10-15T05:49:21;1.38;;;1.27;;
21820;SDS011;11073;48.586;12.066;2022-10-15T05:52:00;0.98;;;0.70;;
21820;SDS011;11073;48.586;12.066;2022-10-15T05:54:52;1.85;;;0.70;;
21820;SDS011;11073;48.586;12.066;2022-10-15T05:57:22;0.82;;;0.55;;
21820;SDS011;11073;48.586;12.066;2022-10-15T05:59:51;0.70;;;0.50;;
21820;SDS011;11073;48.586;12.066;2022-10-15T06:02:20;1.10;;;0.75;;
21820;SDS011;11073;48.586;12.066;2022-10-15T06:04:49;2.63;;;0.60;;
21820;SDS011;11073;48.586;12.066;2022-10-15T06:07:19;1.17;;;0.57;;
21820;SDS011;11073;48.586;12.066;2022-10-15T06:09:49;0.68;;;0.50;;
21820;SDS011;11073;48.586;12.066;2022-10-15T06:12:17;0.50;;;0.40;;
21820;SDS011;11073;48.586;12.066;2022-10-15T06:14:48;0.95;;;0.50;;
21820;SDS011;11073;48.586;12.066;2022-10-15T06:17:17;0.95;;;0.50;;
21820;SDS011;11073;48.586;12.066;2022-10-15T06:19:50;1.20;;;0.82;;
21820;SDS011;11073;48.586;12.066;2022-10-15T06:22:18;1.23;;;0.70;;
21820;SDS011;11073;48.586;12.066;2022-10-15T06:24:47;1.15;;;0.70;;
21820;SDS011;11073;48.586;12.066;2022-10-15T06:27:16;0.90;;;0.40;;
21820;SDS011;11073;48.586;12.066;2022-10-15T06:29:45;0.80;;;0.50;;
21820;SDS011;11073;48.586;12.066;2022-10-15T06:32:15;1.10;;;0.60;;
21820;SDS011;11073;48.586;12.066;2022-10-15T06:34:44;1.80;;;0.70;;
21820;SDS011;11073;48.586;12.066;2022-10-15T06:37:12;0.73;;;0.70;;
21820;SDS011;11073;48.586;12.066;2022-10-15T06:39:41;1.15;;;0.50;;
21820;SDS011;11073;48.586;12.066;2022-10-15T06:42:10;1.60;;;0.55;;
21820;SDS011;11073;48.586;12.066;2022-10-15T06:44:39;1.40;;;0.50;;
21820;SDS011;11073;48.586;12.066;2022-10-15T06:47:09;1.15;;;0.60;;
21820;SDS011;11073;48.586;12.066;2022-10-15T06:49:38;1.05;;;0.43;;
21820;SDS011;11073;48.586;12.066;2022-10-15T06:52:07;0.75;;;0.45;;
21820;SDS011;11073;48.586;12.066;2022-10-15T06:54:36;1.17;;;0.73;;
21820;SDS011;11073;48.586;12.066;2022-10-15T06:57:07;1.05;;;0.50;;
21820;SDS011;11073;48.586;12.066;2022-10-15T06:59:35;1.48;;;0.50;;
21820;SDS011;11073;48.586;12.066;2022-10-15T07:02:07;1.15;;;0.45;;
21820;SDS011;11073;48.586;12.066;2022-10-15T07:04:36;0.55;;;0.40;;
21820;SDS011;11073;48.586;12.066;2022-10-15T07:07:07;0.98;;;0.60;;
21820;SDS011;11073;48.586;12.066;2022-10-15T07:09:35;0.73;;;0.60;;
21820;SDS011;11073;48.586;12.066;2022-10-15T07:12:04;1.05;;;0.57;;
21820;SDS011;11073;48.586;12.066;2022-10-15T07:14:33;0.70;;;0.47;;
21820;SDS011;11073;48.586;12.066;2022-10-15T07:17:08;0.80;;;0.50;;
21820;SDS011;11073;48.586;12.066;2022-10-15T07:19:36;0.63;;;0.63;;
21820;SDS011;11073;48.586;12.066;2022-10-15T07:22:06;1.63;;;0.35;;
21820;SDS011;11073;48.586;12.066;2022-10-15T07:24:35;1.33;;;0.60;;
21820;SDS011;11073;48.586;12.066;2022-10-15T07:27:04;1.63;;;0.40;;
21820;SDS011;11073;48.586;12.066;2022-10-15T07:29:44;0.85;;;0.50;;
21820;SDS011;11073;48.586;12.066;2022-10-15T07:32:13;1.13;;;0.60;;
21820;SDS011;11073;48.586;12.066;2022-10-15T07:34:41;3.13;;;0.70;;
21820;SDS011;11073;48.586;12.066;2022-10-15T07:37:11;3.22;;;1.88;;
21820;SDS011;11073;48.586;12.066;2022-10-15T07:39:40;0.50;;;0.50;;
21820;SDS011;11073;48.586;12.066;2022-10-15T07:42:09;0.40;;;0.40;;
21820;SDS011;11073;48.586;12.066;2022-10-15T07:44:39;0.70;;;0.50;;
21820;SDS011;11073;48.586;12.066;2022-10-15T07:47:09;1.95;;;1.73;;
21820;SDS011;11073;48.586;12.066;2022-10-15T07:49:38;1.58;;;0.75;;
21820;SDS011;11073;48.586;12.066;2022-10-15T07:52:06;0.90;;;0.60;;
21820;SDS011;11073;48.586;12.066;2022-10-15T07:54:36;1.05;;;0.70;;
21820;SDS011;11073;48.586;12.066;2022-10-15T07:57:05;2.90;;;0.70;;
21820;SDS011;11073;48.586;12.066;2022-10-15T07:59:34;0.93;;;0.50;;
21820;SDS011;11073;48.586;12.066;2022-10-15T08:02:03;1.13;;;0.60;;
21820;SDS011;11073;48.586;12.066;2022-10-15T08:04:32;2.75;;;0.80;;
21820;SDS011;11073;48.586;12.066;2022-10-15T08:07:01;2.78;;;1.77;;
21820;SDS011;11073;48.586;12.066;2022-10-15T08:09:36;3.28;;;2.97;;
21820;SDS011;11073;48.586;12.066;2022-10-15T08:12:05;1.23;;;1.10;;
21820;SDS011;11073;48.586;12.066;2022-10-15T08:14:34;2.67;;;0.60;;
21820;SDS011;11073;48.586;12.066;2022-10-15T08:17:05;2.45;;;0.57;;
21820;SDS011;11073;48.586;12.066;2022-10-15T08:19:33;1.48;;;0.68;;
21820;SDS011;11073;48.586;12.066;2022-10-15T08:22:02;1.17;;;0.70;;
21820;SDS011;11073;48.586;12.066;2022-10-15T08:24:31;0.90;;;0.50;;
21820;SDS011;11073;48.586;12.066;2022-10-15T08:27:01;2.25;;;0.50;;
21820;SDS011;11073;48.586;12.066;2022-10-15T08:29:30;0.55;;;0.50;;
21820;SDS011;11073;48.586;12.066;2022-10-15T08:31:59;0.90;;;0.70;;
21820;SDS011;11073;48.586;12.066;2022-10-15T08:34:29;0.75;;;0.60;;
21820;SDS011;11073;48.586;12.066;2022-10-15T08:36:58;0.63;;;0.50;;
21820;SDS011;11073;48.586;12.066;2022-10-15T08:39:27;1.27;;;0.50;;
21820;SDS011;11073;48.586;12.066;2022-10-15T08:41:56;0.60;;;0.45;;
21820;SDS011;11073;48.586;12.066;2022-10-15T08:44:36;1.10;;;0.40;;
21820;SDS011;11073;48.586;12.066;2022-10-15T08:47:08;1.48;;;0.57;;
21820;SDS011;11073;48.586;12.066;2022-10-15T08:49:46;0.70;;;0.40;;
21820;SDS011;11073;48.586;12.066;2022-10-15T08:52:19;0.88;;;0.57;;
21820;SDS011;11073;48.586;12.066;2022-10-15T08:54:52;1.95;;;0.60;;
21820;SDS011;11073;48.586;12.066;2022-10-15T08:57:27;1.42;;;0.82;;
21820;SDS011;11073;48.586;12.066;2022-10-15T09:00:11;1.52;;;0.60;;
21820;SDS011;11073;48.586;12.066;2022-10-15T09:02:46;1.60;;;0.60;;
21820;SDS011;11073;48.586;12.066;2022-10-15T09:05:27;1.02;;;0.40;;
21820;SDS011;11073;48.586;12.066;2022-10-15T09:08:03;1.85;;;0.50;;
21820;SDS011;11073;48.586;12.066;2022-10-15T09:10:40;0.50;;;0.35;;
21820;SDS011;11073;48.586;12.066;2022-10-15T09:13:17;0.30;;;0.30;;
21820;SDS011;11073;48.586;12.066;2022-10-15T09:15:55;0.32;;;0.30;;
21820;SDS011;11073;48.586;12.066;2022-10-15T09:18:28;0.50;;;0.40;;
21820;SDS011;11073;48.586;12.066;2022-10-15T09:21:00;1.17;;;0.65;;
21820;SDS011;11073;48.586;12.066;2022-10-15T09:23:31;0.57;;;0.52;;
21820;SDS011;11073;48.586;12.066;2022-10-15T09:26:01;1.13;;;0.55;;
21820;SDS011;11073;48.586;12.066;2022-10-15T09:28:36;1.60;;;0.68;;
21820;SDS011;11073;48.586;12.066;2022-10-15T09:31:12;0.60;;;0.50;;
21820;SDS011;11073;48.586;12.066;2022-10-15T09:33:44;1.08;;;0.50;;
21820;SDS011;11073;48.586;12.066;2022-10-15T09:36:28;3.13;;;0.50;;
21820;SDS011;11073;48.586;12.066;2022-10-15T09:39:09;0.70;;;0.30;;
21820;SDS011;11073;48.586;12.066;2022-10-15T09:41:56;4.43;;;0.77;;
21820;SDS011;11073;48.586;12.066;2022-10-15T09:44:37;1.00;;;0.70;;
21820;SDS011;11073;48.586;12.066;2022-10-15T09:47:19;0.93;;;0.60;;
21820;SDS011;11073;48.586;12.066;2022-10-15T09:49:56;1.58;;;0.52;;
21820;SDS011;11073;48.586;12.066;2022-10-15T09:52:29;1.35;;;0.50;;
21820;SDS011;11073;48.586;12.066;2022-10-15T09:55:14;1.13;;;0.82;;
21820;SDS011;11073;48.586;12.066;2022-10-15T09:57:55;0.68;;;0.30;;
21820;SDS011;11073;48.586;12.066;2022-10-15T10:00:26;1.15;;;0.30;;
21820;SDS011;11073;48.586;12.066;2022-10-15T10:03:24;0.75;;;0.43;;
21820;SDS011;11073;48.586;12.066;2022-10-15T10:05:58;0.70;;;0.40;;
21820;SDS011;11073;48.586;12.066;2022-10-15T10:08:36;1.30;;;0.30;;
21820;SDS011;11073;48.586;12.066;2022-10-15T10:11:08;0.43;;;0.43;;
21820;SDS011;11073;48.586;12.066;2022-10-15T10:13:39;1.60;;;0.60;;
21820;SDS011;11073;48.586;12.066;2022-10-15T10:16:14;2.25;;;0.40;;
21820;SDS011;11073;48.586;12.066;2022-10-15T10:18:44;0.73;;;0.50;;
21820;SDS011;11073;48.586;12.066;2022-10-15T10:21:30;1.80;;;0.43;;
21820;SDS011;11073;48.586;12.066;2022-10-15T10:26:49;0.50;;;0.32;;
21820;SDS011;11073;48.586;12.066;2022-10-15T10:29:18;0.22;;;0.22;;
21820;SDS011;11073;48.586;12.066;2022-10-15T10:32:09;0.50;;;0.28;;
21820;SDS011;11073;48.586;12.066;2022-10-15T10:34:40;0.38;;;0.35;;
21820;SDS011;11073;48.586;12.066;2022-10-15T10:37:17;2.15;;;0.30;;
21820;SDS011;11073;48.586;12.066;2022-10-15T10:39:51;0.22;;;0.20;;
21820;SDS011;11073;48.586;12.066;2022-10-15T10:42:25;0.43;;;0.40;;
21820;SDS011;11073;48.586;12.066;2022-10-15T10:45:19;1.88;;;0.40;;
21820;SDS011;11073;48.586;12.066;2022-10-15T10:47:51;2.95;;;1.60;;
21820;SDS011;11073;48.586;12.066;2022-10-15T10:50:25;1.67;;;0.93;;
21820;SDS011;11073;48.586;12.066;2022-10-15T10:52:56;0.50;;;0.30;;
21820;SDS011;11073;48.586;12.066;2022-10-15T10:55:30;0.65;;;0.60;;
21820;SDS011;11073;48.586;12.066;2022-10-15T10:58:04;0.55;;;0.40;;
21820;SDS011;11073;48.586;12.066;2022-10-15T11:00:42;1.10;;;0.90;;
21820;SDS011;11073;48.586;12.066;2022-10-15T11:03:18;1.85;;;0.70;;
21820;SDS011;11073;48.586;12.066;2022-10-15T11:05:58;0.80;;;0.73;;
21820;SDS011;11073;48.586;12.066;2022-10-15T11:08:37;0.65;;;0.20;;
21820;SDS011;11073;48.586;12.066;2022-10-15T11:11:16;0.90;;;0.73;;
21820;SDS011;11073;48.586;12.066;2022-10-15T11:13:51;1.45;;;1.15;;
21820;SDS011;11073;48.586;12.066;2022-10-15T11:16:30;0.20;;;0.20;;
21820;SDS011;11073;48.586;12.066;2022-10-15T11:19:13;1.70;;;0.82;;
21820;SDS011;11073;48.586;12.066;2022-10-15T11:25:06;0.80;;;0.50;;
21820;SDS011;11073;48.586;12.066;2022-10-15T11:27:47;0.30;;;0.30;;
21820;SDS011;11073;48.586;12.066;2022-10-15T11:30:29;0.85;;;0.50;;
21820;SDS011;11073;48.586;12.066;2022-10-15T11:33:11;1.10;;;0.80;;
21820;SDS011;11073;48.586;12.066;2022-10-15T11:35:53;0.98;;;0.60;;
21820;SDS011;11073;48.586;12.066;2022-10-15T11:38:37;1.67;;;0.80;;
21820;SDS011;11073;48.586;12.066;2022-10-15T11:41:21;1.38;;;0.60;;
21820;SDS011;11073;48.586;12.066;2022-10-15T11:44:06;0.70;;;0.38;;
21820;SDS011;11073;48.586;12.066;2022-10-15T11:46:49;2.78;;;0.77;;
21820;SDS011;11073;48.586;12.066;2022-10-15T11:49:29;1.15;;;0.60;;
21820;SDS011;11073;48.586;12.066;2022-10-15T11:52:19;0.47;;;0.43;;
21820;SDS011;11073;48.586;12.066;2022-10-15T11:55:03;1.30;;;0.40;;
21820;SDS011;11073;48.586;12.066;2022-10-15T11:57:39;0.35;;;0.35;;
21820;SDS011;11073;48.586;12.066;2022-10-15T12:00:13;2.35;;;0.70;;
21820;SDS011;11073;48.586;12.066;2022-10-15T12:02:53;3.08;;;0.90;;
21820;SDS011;11073;48.586;12.066;2022-10-15T12:05:26;0.82;;;0.50;;
21820;SDS011;11073;48.586;12.066;2022-10-15T12:08:00;3.47;;;1.80;;
21820;SDS011;11073;48.586;12.066;2022-10-15T12:10:50;0.88;;;0.60;;
21820;SDS011;11073;48.586;12.066;2022-10-15T12:13:25;3.35;;;0.60;;
21820;SDS011;11073;48.586;12.066;2022-10-15T12:16:05;1.15;;;0.57;;
21820;SDS011;11073;48.586;12.066;2022-10-15T12:18:42;1.85;;;1.05;;
21820;SDS011;11073;48.586;12.066;2022-10-15T12:21:30;1.33;;;0.65;;
21820;SDS011;11073;48.586;12.066;2022-10-15T12:24:03;1.13;;;0.75;;
21820;SDS011;11073;48.586;12.066;2022-10-15T12:26:36;1.63;;;0.77;;
21820;SDS011;11073;48.586;12.066;2022-10-15T12:29:16;3.95;;;0.77;;
21820;SDS011;11073;48.586;12.066;2022-10-15T12:31:48;1.17;;;0.80;;
21820;SDS011;11073;48.586;12.066;2022-10-15T12:34:26;1.35;;;0.75;;
21820;SDS011;11073;48.586;12.066;2022-10-15T12:37:00;2.40;;;0.70;;
21820;SDS011;11073;48.586;12.066;2022-10-15T12:39:33;1.02;;;0.60;;
21820;SDS011;11073;48.586;12.066;2022-10-15T12:42:25;1.42;;;0.90;;
21820;SDS011;11073;48.586;12.066;2022-10-15T12:44:57;1.35;;;0.65;;
21820;SDS011;11073;48.586;12.066;2022-10-15T12:47:45;1.42;;;0.73;;
21820;SDS011;11073;48.586;12.066;2022-10-15T12:50:18;0.95;;;0.60;;
21820;SDS011;11073;48.586;12.066;2022-10-15T12:52:56;0.73;;;0.60;;
21820;SDS011;11073;48.586;12.066;2022-10-15T12:55:29;2.03;;;0.70;;
21820;SDS011;11073;48.586;12.066;2022-10-15T12:58:01;0.98;;;0.80;;
21820;SDS011;11073;48.586;12.066;2022-10-15T13:00:33;3.58;;;0.73;;
21820;SDS011;11073;48.586;12.066;2022-10-15T13:06:21;1.08;;;0.70;;
21820;SDS011;11073;48.586;12.066;2022-10-15T13:08:54;2.38;;;0.90;;
21820;SDS011;11073;48.586;12.066;2022-10-15T13:11:36;0.95;;;0.60;;
21820;SDS011;11073;48.586;12.066;2022-10-15T13:14:13;5.25;;;0.57;;
21820;SDS011;11073;48.586;12.066;2022-10-15T13:16:47;2.97;;;0.50;;
21820;SDS011;11073;48.586;12.066;2022-10-15T13:19:17;0.90;;;0.43;;
21820;SDS011;11073;48.586;12.066;2022-10-15T13:21:53;1.20;;;0.45;;
21820;SDS011;11073;48.586;12.066;2022-10-15T13:24:27;1.50;;;0.60;;
21820;SDS011;11073;48.586;12.066;2022-10-15T13:26:59;1.00;;;0.70;;
21820;SDS011;11073;48.586;12.066;2022-10-15T13:29:28;1.45;;;0.50;;
21820;SDS011;11073;48.586;12.066;2022-10-15T13:31:57;1.10;;;0.98;;
21820;SDS011;11073;48.586;12.066;2022-10-15T13:34:29;1.67;;;0.60;;
21820;SDS011;11073;48.586;12.066;2022-10-15T13:37:00;1.92;;;0.40;;
21820;SDS011;11073;48.586;12.066;2022-10-15T13:39:31;1.75;;;0.60;;
21820;SDS011;11073;48.586;12.066;2022-10-15T13:42:08;0.77;;;0.50;;
21820;SDS011;11073;48.586;12.066;2022-10-15T13:44:41;2.05;;;0.63;;
21820;SDS011;11073;48.586;12.066;2022-10-15T13:47:18;1.48;;;0.80;;
21820;SDS011;11073;48.586;12.066;2022-10-15T13:52:40;0.40;;;0.40;;
21820;SDS011;11073;48.586;12.066;2022-10-15T13:55:14;1.80;;;0.50;;
21820;SDS011;11073;48.586;12.066;2022-10-15T13:57:46;2.45;;;0.55;;
21820;SDS011;11073;48.586;12.066;2022-10-15T14:00:21;2.72;;;0.82;;
21820;SDS011;11073;48.586;12.066;2022-10-15T14:03:05;2.75;;;0.90;;
21820;SDS011;11073;48.586;12.066;2022-10-15T14:05:35;5.07;;;0.95;;
21820;SDS011;11073;48.586;12.066;2022-10-15T14:08:04;2.78;;;0.90;;
21820;SDS011;11073;48.586;12.066;2022-10-15T14:10:33;1.35;;;0.85;;
21820;SDS011;11073;48.586;12.066;2022-10-15T14:13:04;1.83;;;0.85;;
21820;SDS011;11073;48.586;12.066;2022-10-15T14:15:46;2.90;;;1.08;;
21820;SDS011;11073;48.586;12.066;2022-10-15T14:18:25;1.85;;;1.00;;
21820;SDS011;11073;48.586;12.066;2022-10-15T14:20:57;1.17;;;1.00;;
21820;SDS011;11073;48.586;12.066;2022-10-15T14:23:26;1.35;;;1.00;;
21820;SDS011;11073;48.586;12.066;2022-10-15T14:25:56;1.55;;;0.80;;
21820;SDS011;11073;48.586;12.066;2022-10-15T14:28:27;1.77;;;0.60;;
21820;SDS011;11073;48.586;12.066;2022-10-15T14:30:58;3.05;;;0.80;;
21820;SDS011;11073;48.586;12.066;2022-10-15T14:33:30;1.63;;;0.98;;
21820;SDS011;11073;48.586;12.066;2022-10-15T14:36:04;1.42;;;0.95;;
21820;SDS011;11073;48.586;12.066;2022-10-15T14:38:36;1.98;;;0.77;;
21820;SDS011;11073;48.586;12.066;2022-10-15T14:41:05;3.88;;;1.02;;
21820;SDS011;11073;48.586;12.066;2022-10-15T14:43:59;1.30;;;0.50;;
21820;SDS011;11073;48.586;12.066;2022-10-15T14:46:35;1.05;;;0.52;;
21820;SDS011;11073;48.586;12.066;2022-10-15T14:51:58;14.38;;;9.48;;
21820;SDS011;11073;48.586;12.066;2022-10-15T14:54:33;1.50;;;0.73;;
21820;SDS011;11073;48.586;12.066;2022-10-15T14:57:10;2.08;;;0.70;;
21820;SDS011;11073;48.586;12.066;2022-10-15T14:59:47;4.65;;;2.17;;
21820;SDS011;11073;48.586;12.066;2022-10-15T15:02:22;2.30;;;0.80;;
21820;SDS011;11073;48.586;12.066;2022-10-15T15:05:03;1.50;;;0.57;;
21820;SDS011;11073;48.586;12.066;2022-10-15T15:07:35;2.25;;;0.65;;
21820;SDS011;11073;48.586;12.066;2022-10-15T15:10:05;1.90;;;0.60;;
21820;SDS011;11073;48.586;12.066;2022-10-15T15:12:37;1.92;;;0.50;;
21820;SDS011;11073;48.586;12.066;2022-10-15T15:15:11;1.92;;;0.70;;
21820;SDS011;11073;48.586;12.066;2022-10-15T15:17:40;1.23;;;0.70;;
21820;SDS011;11073;48.586;12.066;2022-10-15T15:20:10;2.78;;;0.85;;
21820;SDS011;11073;48.586;12.066;2022-10-15T15:22:39;2.28;;;0.80;;
21820;SDS011;11073;48.586;12.066;2022-10-15T15:25:12;3.35;;;0.70;;
21820;SDS011;11073;48.586;12.066;2022-10-15T15:27:42;3.30;;;0.60;;
21820;SDS011;11073;48.586;12.066;2022-10-15T15:30:15;1.73;;;0.70;;